Time;durP1;ratioP1;P1;durP2;ratioP2;P2;SDS_P1;SDS_P2;PMS_P1;PMS_P2;Temp;Humidity;BMP_temperature;BMP_pressure;BME280_temperature;BME280_humidity;BME280_pressure;Samples;Min_cycle;Max_cycle;Signal;HPM_P1;HPM_P2
2021/01/31 00:01:37;;;;;;;41.87;37.57;;;;;;;;;;5013969;28;20945;-70
2021/01/31 00:04:05;;;;;;;41.10;36.80;;;;;;;;;;5014081;28;20503;-69
2021/01/31 00:06:31;;;;;;;39.70;35.33;;;;;;;;;;5013825;28;20501;-70
2021/01/31 00:08:59;;;;;;;40.73;35.10;;;;;;;;;;5013992;28;20445;-69
2021/01/31 00:11:26;;;;;;;43.73;37.93;;;;;;;;;;5008166;28;20984;-70
2021/01/31 00:13:53;;;;;;;39.67;35.27;;;;;;;;;;5001129;28;20482;-69
2021/01/31 00:16:19;;;;;;;40.97;36.67;;;;;;;;;;5011789;28;20476;-68
2021/01/31 00:18:46;;;;;;;39.10;34.93;;;;;;;;;;5013249;28;20944;-70
2021/01/31 00:21:13;;;;;;;41.03;36.63;;;;;;;;;;5013701;28;20449;-70
2021/01/31 00:23:40;;;;;;;42.20;37.67;;;;;;;;;;5014065;28;20450;-69
2021/01/31 00:26:06;;;;;;;43.23;38.57;;;;;;;;;;5013648;28;20481;-69
2021/01/31 00:28:33;;;;;;;48.40;39.17;;;;;;;;;;5007205;28;20451;-69
2021/01/31 00:31:00;;;;;;;46.53;38.50;;;;;;;;;;5002742;28;20457;-68
2021/01/31 00:33:28;;;;;;;53.83;44.13;;;;;;;;;;5012111;28;21019;-68
2021/01/31 00:35:55;;;;;;;50.70;42.43;;;;;;;;;;4993911;28;20470;-69
2021/01/31 00:38:24;;;;;;;60.17;45.70;;;;;;;;;;4994017;28;20457;-73
2021/01/31 00:40:50;;;;;;;58.20;42.40;;;;;;;;;;4994046;28;20443;-69
2021/01/31 00:43:17;;;;;;;55.73;42.90;;;;;;;;;;4993806;28;20668;-69
2021/01/31 00:45:44;;;;;;;64.40;46.87;;;;;;;;;;4997345;28;20499;-68
2021/01/31 00:48:11;;;;;;;65.60;48.13;;;;;;;;;;5012672;28;20824;-69
2021/01/31 00:50:39;;;;;;;60.97;45.13;;;;;;;;;;5013396;28;20453;-69
2021/01/31 00:53:06;;;;;;;68.40;48.90;;;;;;;;;;5012758;28;20464;-68
2021/01/31 00:55:33;;;;;;;55.20;43.60;;;;;;;;;;5013278;28;20465;-71
2021/01/31 00:58:00;;;;;;;54.97;45.13;;;;;;;;;;5013092;28;20450;-67
2021/01/31 01:00:29;;;;;;;54.97;45.63;;;;;;;;;;5011928;28;20511;-71
2021/01/31 01:02:56;;;;;;;59.77;46.50;;;;;;;;;;5012924;28;20963;-68
2021/01/31 01:05:23;;;;;;;49.87;42.07;;;;;;;;;;5012655;28;20469;-67
2021/01/31 01:07:50;;;;;;;54.07;42.80;;;;;;;;;;5000148;28;20465;-68
2021/01/31 01:10:18;;;;;;;54.73;41.97;;;;;;;;;;5011976;28;20454;-71
2021/01/31 01:12:46;;;;;;;59.00;43.83;;;;;;;;;;5012712;28;20446;-71
2021/01/31 01:15:13;;;;;;;54.50;42.67;;;;;;;;;;5012282;28;20493;-68
2021/01/31 01:17:40;;;;;;;51.03;42.27;;;;;;;;;;5012854;28;20446;-68
2021/01/31 01:20:07;;;;;;;52.13;40.63;;;;;;;;;;5012632;28;20524;-69
2021/01/31 01:22:34;;;;;;;47.33;39.30;;;;;;;;;;5012521;28;20449;-69
2021/01/31 01:25:02;;;;;;;46.77;38.07;;;;;;;;;;5012389;28;20473;-69
2021/01/31 01:27:30;;;;;;;55.30;42.80;;;;;;;;;;5010455;28;20460;-69
2021/01/31 01:29:58;;;;;;;50.23;40.37;;;;;;;;;;5002558;28;20453;-69
2021/01/31 01:32:24;;;;;;;53.33;40.97;;;;;;;;;;5012235;28;20448;-69
2021/01/31 01:34:51;;;;;;;47.57;39.17;;;;;;;;;;5011476;28;20486;-69
2021/01/31 01:37:18;;;;;;;47.17;38.10;;;;;;;;;;5012430;28;20500;-68
2021/01/31 01:39:44;;;;;;;55.20;41.90;;;;;;;;;;5012178;28;20450;-67
2021/01/31 01:42:12;;;;;;;48.40;41.10;;;;;;;;;;5012126;28;20457;-66
2021/01/31 01:44:39;;;;;;;52.63;39.43;;;;;;;;;;5012286;28;20445;-66
2021/01/31 01:47:07;;;;;;;51.47;39.10;;;;;;;;;;5012343;28;20450;-65
2021/01/31 01:49:35;;;;;;;47.33;36.83;;;;;;;;;;5006092;28;20450;-66
2021/01/31 01:52:03;;;;;;;49.80;41.33;;;;;;;;;;4992720;28;20454;-67
2021/01/31 01:54:32;;;;;;;52.13;42.40;;;;;;;;;;5010711;28;20484;-68
2021/01/31 01:57:01;;;;;;;49.80;37.80;;;;;;;;;;5012418;28;20475;-67
2021/01/31 01:59:28;;;;;;;44.63;39.30;;;;;;;;;;5011928;28;20445;-66
2021/01/31 02:02:00;;;;;;;54.53;39.70;;;;;;;;;;5012229;28;20461;-66
2021/01/31 02:04:28;;;;;;;55.83;43.13;;;;;;;;;;5012309;28;20454;-67
2021/01/31 02:06:55;;;;;;;49.33;40.20;;;;;;;;;;5011048;28;20453;-67
2021/01/31 02:09:22;;;;;;;49.90;40.83;;;;;;;;;;5011628;28;20476;-68
2021/01/31 02:11:52;;;;;;;49.83;41.77;;;;;;;;;;5009960;28;20445;-69
2021/01/31 02:14:18;;;;;;;49.17;41.80;;;;;;;;;;5011914;28;20492;-68
2021/01/31 02:16:51;;;;;;;48.93;40.60;;;;;;;;;;5012017;28;20485;-67
2021/01/31 02:19:45;;;;;;;50.57;42.37;;;;;;;;;;5011660;28;20450;-67
2021/01/31 02:22:19;;;;;;;55.27;42.00;;;;;;;;;;4976514;28;20476;-67
2021/01/31 02:25:19;;;;;;;49.27;37.30;;;;;;;;;;5011247;28;20469;-67
2021/01/31 02:27:58;;;;;;;48.43;39.30;;;;;;;;;;4912548;29;20909;-67
2021/01/31 02:30:45;;;;;;;52.60;41.03;;;;;;;;;;4919411;29;20671;-66
2021/01/31 02:33:21;;;;;;;52.77;41.83;;;;;;;;;;4983899;28;20457;-67
2021/01/31 02:35:50;;;;;;;58.00;42.80;;;;;;;;;;4999776;28;20477;-66
2021/01/31 02:38:21;;;;;;;59.77;45.07;;;;;;;;;;5011411;28;20456;-69
2021/01/31 02:40:52;;;;;;;51.73;42.97;;;;;;;;;;5011352;28;21082;-67
2021/01/31 02:43:26;;;;;;;56.87;42.27;;;;;;;;;;5010219;28;20957;-66
2021/01/31 02:45:57;;;;;;;53.27;43.73;;;;;;;;;;5010654;28;20484;-67
2021/01/31 02:48:27;;;;;;;53.17;42.10;;;;;;;;;;5011834;28;20461;-68
2021/01/31 02:50:57;;;;;;;52.70;41.50;;;;;;;;;;5011776;28;20445;-67
2021/01/31 02:53:25;;;;;;;54.97;44.03;;;;;;;;;;5012415;28;20481;-67
2021/01/31 02:55:54;;;;;;;55.17;44.63;;;;;;;;;;5011937;28;21007;-68
2021/01/31 02:58:22;;;;;;;56.23;43.23;;;;;;;;;;5015797;28;20454;-67
2021/01/31 03:00:54;;;;;;;58.20;43.30;;;;;;;;;;5017540;28;20952;-68
2021/01/31 03:03:25;;;;;;;55.37;42.87;;;;;;;;;;5018230;28;20890;-67
2021/01/31 03:05:54;;;;;;;64.10;44.77;;;;;;;;;;5011632;28;20465;-68
2021/01/31 03:08:23;;;;;;;58.10;41.80;;;;;;;;;;5011526;28;20815;-68
2021/01/31 03:10:53;;;;;;;71.33;44.97;;;;;;;;;;5011398;28;20449;-70
2021/01/31 03:13:23;;;;;;;81.30;47.97;;;;;;;;;;5011420;28;20932;-67
2021/01/31 03:15:53;;;;;;;68.20;45.97;;;;;;;;;;5010916;28;20469;-67
2021/01/31 03:18:22;;;;;;;71.33;44.67;;;;;;;;;;5011789;28;20854;-70
2021/01/31 03:20:52;;;;;;;69.33;45.20;;;;;;;;;;5012366;28;20809;-68
2021/01/31 03:23:21;;;;;;;60.17;43.50;;;;;;;;;;5014139;28;20440;-68
2021/01/31 03:25:49;;;;;;;58.23;44.53;;;;;;;;;;5014985;28;20504;-67
2021/01/31 03:28:15;;;;;;;67.07;50.20;;;;;;;;;;5015377;28;20434;-67
2021/01/31 03:30:42;;;;;;;60.17;40.77;;;;;;;;;;5014583;28;20805;-68
2021/01/31 03:33:12;;;;;;;59.10;43.50;;;;;;;;;;5014850;28;20460;-67
2021/01/31 03:35:40;;;;;;;66.83;44.60;;;;;;;;;;5014560;28;20469;-68
2021/01/31 03:38:09;;;;;;;63.53;45.47;;;;;;;;;;5014980;28;20452;-69
2021/01/31 03:40:37;;;;;;;61.00;48.30;;;;;;;;;;5014411;28;20449;-67
2021/01/31 03:43:04;;;;;;;63.83;46.93;;;;;;;;;;5014995;28;20445;-67
2021/01/31 03:45:33;;;;;;;66.13;47.63;;;;;;;;;;5014269;28;20477;-67
2021/01/31 03:48:02;;;;;;;59.57;43.80;;;;;;;;;;5014463;28;20454;-66
2021/01/31 03:50:29;;;;;;;71.47;47.17;;;;;;;;;;5013997;28;20453;-69
2021/01/31 03:52:55;;;;;;;62.40;46.03;;;;;;;;;;5014526;28;20445;-67
2021/01/31 03:55:22;;;;;;;57.50;41.53;;;;;;;;;;5013424;28;20838;-68
2021/01/31 03:57:51;;;;;;;61.27;43.63;;;;;;;;;;5013658;28;20986;-69
2021/01/31 04:00:20;;;;;;;55.20;42.47;;;;;;;;;;5014290;28;20503;-67
2021/01/31 04:02:49;;;;;;;65.70;45.47;;;;;;;;;;5009698;28;20450;-66
2021/01/31 04:05:16;;;;;;;66.27;55.37;;;;;;;;;;4994538;28;20889;-68
2021/01/31 04:07:45;;;;;;;66.63;56.77;;;;;;;;;;5007133;28;20541;-66
2021/01/31 04:10:12;;;;;;;75.27;59.70;;;;;;;;;;5014113;28;20477;-66
2021/01/31 04:12:41;;;;;;;65.90;58.70;;;;;;;;;;5013859;28;20839;-66
2021/01/31 04:15:12;;;;;;;70.73;59.63;;;;;;;;;;5013988;28;20493;-67
2021/01/31 04:17:41;;;;;;;68.97;56.27;;;;;;;;;;5013642;28;20456;-67
2021/01/31 04:20:09;;;;;;;73.93;58.13;;;;;;;;;;5013426;28;20458;-67
2021/01/31 04:22:35;;;;;;;69.57;57.20;;;;;;;;;;5013535;28;20441;-67
2021/01/31 04:25:02;;;;;;;65.90;56.50;;;;;;;;;;5011235;28;20465;-67
2021/01/31 04:27:28;;;;;;;70.67;55.70;;;;;;;;;;5013193;28;20446;-67
2021/01/31 04:29:55;;;;;;;64.87;56.70;;;;;;;;;;5013407;28;20446;-67
2021/01/31 04:32:22;;;;;;;68.40;56.47;;;;;;;;;;5013538;28;20458;-66
2021/01/31 04:34:49;;;;;;;66.00;54.60;;;;;;;;;;5013115;28;20501;-67
2021/01/31 04:37:16;;;;;;;64.23;53.00;;;;;;;;;;5013410;28;20453;-66
2021/01/31 04:39:42;;;;;;;64.50;54.10;;;;;;;;;;5012712;28;20458;-67
2021/01/31 04:42:09;;;;;;;64.23;52.50;;;;;;;;;;5013182;28;20461;-67
2021/01/31 04:44:36;;;;;;;60.20;49.77;;;;;;;;;;5013108;28;20445;-66
2021/01/31 04:47:07;;;;;;;55.23;49.30;;;;;;;;;;5013416;28;20879;-67
2021/01/31 04:49:43;;;;;;;56.53;50.20;;;;;;;;;;5012576;28;20438;-67
2021/01/31 04:52:21;;;;;;;56.47;50.30;;;;;;;;;;5013364;28;20441;-66
2021/01/31 04:54:55;;;;;;;54.63;48.83;;;;;;;;;;5012282;28;21362;-68
2021/01/31 04:57:25;;;;;;;54.50;48.03;;;;;;;;;;5013361;28;20449;-67
2021/01/31 04:59:52;;;;;;;51.80;46.30;;;;;;;;;;5012811;28;20454;-67
2021/01/31 05:02:20;;;;;;;50.53;44.30;;;;;;;;;;5012986;28;20453;-67
2021/01/31 05:04:50;;;;;;;51.40;44.43;;;;;;;;;;5012907;28;20488;-67
2021/01/31 05:07:18;;;;;;;50.10;44.90;;;;;;;;;;5013032;28;20450;-68
2021/01/31 05:09:45;;;;;;;48.10;43.10;;;;;;;;;;5007510;28;20457;-66
2021/01/31 05:12:13;;;;;;;51.20;45.97;;;;;;;;;;4993239;28;20930;-66
2021/01/31 05:14:46;;;;;;;50.90;45.53;;;;;;;;;;5012204;28;20521;-67
2021/01/31 05:17:14;;;;;;;49.30;44.30;;;;;;;;;;5012819;28;21011;-66
2021/01/31 05:19:40;;;;;;;49.93;44.87;;;;;;;;;;5012494;28;20454;-67
2021/01/31 05:22:09;;;;;;;48.50;43.23;;;;;;;;;;5012871;28;20449;-66
2021/01/31 05:24:36;;;;;;;48.57;43.73;;;;;;;;;;5010564;28;20441;-67
2021/01/31 05:27:04;;;;;;;47.03;42.10;;;;;;;;;;5011660;28;20450;-67
2021/01/31 05:29:32;;;;;;;50.73;45.43;;;;;;;;;;5011681;28;20820;-68
2021/01/31 05:32:02;;;;;;;49.83;44.77;;;;;;;;;;5012939;28;20468;-67
2021/01/31 05:34:33;;;;;;;48.83;43.73;;;;;;;;;;5012381;28;20516;-67
2021/01/31 05:37:01;;;;;;;51.53;46.40;;;;;;;;;;5012874;28;20450;-67
2021/01/31 05:39:35;;;;;;;47.57;42.60;;;;;;;;;;5011227;28;20500;-67
2021/01/31 05:42:05;;;;;;;45.90;41.50;;;;;;;;;;5012552;28;21022;-67
2021/01/31 05:44:32;;;;;;;46.40;41.73;;;;;;;;;;5010247;28;20491;-67
2021/01/31 05:47:00;;;;;;;48.03;43.50;;;;;;;;;;4997327;28;20458;-67
2021/01/31 05:49:35;;;;;;;45.33;40.80;;;;;;;;;;5008942;28;20843;-67
2021/01/31 05:52:02;;;;;;;45.43;41.03;;;;;;;;;;5012807;28;20528;-66
2021/01/31 05:54:29;;;;;;;45.10;40.53;;;;;;;;;;5012116;28;20485;-67
2021/01/31 05:56:56;;;;;;;47.30;42.30;;;;;;;;;;5012387;28;20449;-67
2021/01/31 05:59:23;;;;;;;44.80;40.10;;;;;;;;;;5012341;28;20452;-67
2021/01/31 06:01:54;;;;;;;45.07;40.27;;;;;;;;;;5011997;28;20454;-68
2021/01/31 06:04:22;;;;;;;44.57;40.07;;;;;;;;;;5012585;28;20445;-68
2021/01/31 06:06:48;;;;;;;44.00;39.40;;;;;;;;;;5011993;28;20477;-68
2021/01/31 06:09:16;;;;;;;41.67;37.43;;;;;;;;;;5009937;28;20477;-67
2021/01/31 06:11:44;;;;;;;44.57;40.00;;;;;;;;;;4992884;28;20458;-68
2021/01/31 06:14:23;;;;;;;44.87;40.43;;;;;;;;;;4992728;28;20497;-67
2021/01/31 06:16:59;;;;;;;44.10;39.70;;;;;;;;;;4992868;28;20458;-67
2021/01/31 06:19:27;;;;;;;43.97;39.77;;;;;;;;;;4992648;28;20906;-66
2021/01/31 06:21:54;;;;;;;42.13;37.90;;;;;;;;;;5012740;28;20446;-66
2021/01/31 06:24:21;;;;;;;44.10;39.73;;;;;;;;;;5008819;28;20819;-67
2021/01/31 06:26:48;;;;;;;43.37;38.97;;;;;;;;;;5012183;28;20480;-66
2021/01/31 06:29:17;;;;;;;44.67;40.20;;;;;;;;;;5018281;28;20449;-66
2021/01/31 06:31:47;;;;;;;43.23;38.60;;;;;;;;;;5034703;28;20456;-66
2021/01/31 06:34:14;;;;;;;45.90;41.20;;;;;;;;;;5035100;28;20528;-68
2021/01/31 06:36:47;;;;;;;44.07;39.67;;;;;;;;;;5034564;28;20474;-68
2021/01/31 06:39:20;;;;;;;42.47;38.00;;;;;;;;;;5033895;28;20436;-67
2021/01/31 06:41:58;;;;;;;43.27;38.97;;;;;;;;;;5032849;28;20529;-65
2021/01/31 06:44:32;;;;;;;41.60;37.40;;;;;;;;;;5034631;28;20430;-66
2021/01/31 06:47:04;;;;;;;42.67;38.30;;;;;;;;;;5033839;28;20461;-66
2021/01/31 06:49:34;;;;;;;42.17;38.03;;;;;;;;;;5034326;28;20433;-67
2021/01/31 06:52:07;;;;;;;42.50;38.20;;;;;;;;;;5034024;28;20449;-67
2021/01/31 06:54:44;;;;;;;43.47;38.80;;;;;;;;;;5026952;28;20461;-65
2021/01/31 06:57:19;;;;;;;40.60;36.43;;;;;;;;;;5031121;28;20437;-66
2021/01/31 07:00:03;;;;;;;40.20;35.97;;;;;;;;;;5010181;28;20484;-67
2021/01/31 07:02:54;;;;;;;41.47;37.27;;;;;;;;;;5015740;28;20796;-67
2021/01/31 07:05:31;;;;;;;41.73;37.50;;;;;;;;;;4959729;28;20523;-67
2021/01/31 07:08:12;;;;;;;43.13;38.73;;;;;;;;;;5017162;28;20815;-67
2021/01/31 07:11:02;;;;;;;40.20;36.00;;;;;;;;;;5033430;28;20444;-67
2021/01/31 07:13:38;;;;;;;40.57;36.30;;;;;;;;;;5015528;28;20456;-67
2021/01/31 07:16:11;;;;;;;39.53;35.37;;;;;;;;;;5015651;28;20473;-67
2021/01/31 07:18:41;;;;;;;39.77;35.60;;;;;;;;;;5015977;28;20453;-66
2021/01/31 07:21:09;;;;;;;39.13;34.93;;;;;;;;;;5015508;28;20464;-67
2021/01/31 07:23:38;;;;;;;38.20;34.37;;;;;;;;;;5026177;28;20852;-67
2021/01/31 07:26:21;;;;;;;37.33;33.73;;;;;;;;;;5024870;28;20474;-66
2021/01/31 07:28:51;;;;;;;38.60;34.73;;;;;;;;;;5023762;28;20533;-64
2021/01/31 07:31:21;;;;;;;34.33;30.87;;;;;;;;;;5034173;28;20456;-66
2021/01/31 07:33:51;;;;;;;33.07;29.77;;;;;;;;;;5027445;28;20453;-66
2021/01/31 07:36:20;;;;;;;34.07;30.67;;;;;;;;;;5015137;28;20473;-66
2021/01/31 07:38:49;;;;;;;34.87;31.47;;;;;;;;;;5014118;28;20441;-68
2021/01/31 07:41:16;;;;;;;30.00;27.03;;;;;;;;;;5013315;28;20449;-68
2021/01/31 07:43:43;;;;;;;33.73;30.30;;;;;;;;;;5014534;28;20458;-68
2021/01/31 07:46:13;;;;;;;30.83;27.63;;;;;;;;;;5013979;28;20484;-68
2021/01/31 07:48:57;;;;;;;27.00;21.53;;;;;;;;;;5008303;28;20488;-71
2021/01/31 07:51:42;;;;;;;30.57;25.93;;;;;;;;;;5014009;28;20454;-69
2021/01/31 07:54:20;;;;;;;30.83;26.63;;;;;;;;;;5008516;28;20516;-69
2021/01/31 07:56:47;;;;;;;30.97;24.60;;;;;;;;;;4994580;28;20492;-70
2021/01/31 07:59:32;;;;;;;28.07;24.57;;;;;;;;;;5005697;28;20465;-70
2021/01/31 08:01:59;;;;;;;26.20;23.40;;;;;;;;;;5008345;28;20857;-69
2021/01/31 08:04:28;;;;;;;31.70;25.03;;;;;;;;;;5009732;28;20941;-69
2021/01/31 08:06:57;;;;;;;33.50;27.67;;;;;;;;;;5012033;28;20484;-70
2021/01/31 08:09:42;;;;;;;33.17;28.20;;;;;;;;;;5011153;28;20505;-69
2021/01/31 08:12:10;;;;;;;33.83;29.20;;;;;;;;;;5012210;28;20461;-71
2021/01/31 08:14:55;;;;;;;28.10;22.50;;;;;;;;;;5002927;28;20481;-71
2021/01/31 08:17:40;;;;;;;23.00;18.73;;;;;;;;;;5013811;28;20454;-71
2021/01/31 08:20:22;;;;;;;19.03;16.30;;;;;;;;;;5013158;28;20457;-71
2021/01/31 08:22:49;;;;;;;19.30;16.50;;;;;;;;;;5008147;28;20466;-72
2021/01/31 08:25:22;;;;;;;17.47;15.23;;;;;;;;;;5013188;28;20478;-71
2021/01/31 08:27:53;;;;;;;21.43;15.80;;;;;;;;;;5012434;28;20507;-72
2021/01/31 08:30:26;;;;;;;19.10;16.03;;;;;;;;;;5012528;28;20453;-72
2021/01/31 08:33:06;;;;;;;18.47;16.50;;;;;;;;;;5012916;28;20468;-71
2021/01/31 08:35:37;;;;;;;19.67;16.70;;;;;;;;;;5012296;28;20496;-69
2021/01/31 08:38:13;;;;;;;18.70;16.57;;;;;;;;;;5004709;28;20449;-69
2021/01/31 08:40:41;;;;;;;16.80;15.07;;;;;;;;;;5013251;28;20461;-69
2021/01/31 08:43:09;;;;;;;14.53;13.00;;;;;;;;;;5013144;28;20476;-71
2021/01/31 08:45:43;;;;;;;14.20;12.90;;;;;;;;;;5013218;28;20481;-70
2021/01/31 08:48:10;;;;;;;15.23;13.30;;;;;;;;;;5011638;28;20466;-70
2021/01/31 08:50:37;;;;;;;14.53;13.33;;;;;;;;;;5012777;28;20449;-70
2021/01/31 08:53:04;;;;;;;15.50;14.00;;;;;;;;;;5012934;28;20458;-70
2021/01/31 08:55:31;;;;;;;15.40;14.00;;;;;;;;;;5012636;28;20489;-70
2021/01/31 08:58:02;;;;;;;14.03;12.80;;;;;;;;;;5026423;28;20456;-70
2021/01/31 09:00:30;;;;;;;14.63;13.33;;;;;;;;;;5013850;28;20449;-69
2021/01/31 09:02:57;;;;;;;13.90;12.60;;;;;;;;;;5016703;28;20465;-70
2021/01/31 09:05:24;;;;;;;15.43;11.43;;;;;;;;;;5012653;28;20469;-70
2021/01/31 09:07:53;;;;;;;11.77;7.60;;;;;;;;;;5012959;28;20456;-72
2021/01/31 09:10:26;;;;;;;7.70;6.90;;;;;;;;;;5012729;28;21024;-71
2021/01/31 09:13:06;;;;;;;7.20;6.50;;;;;;;;;;5014412;28;20453;-73
2021/01/31 09:15:33;;;;;;;7.13;6.43;;;;;;;;;;5014840;28;20516;-69
2021/01/31 09:18:06;;;;;;;8.10;5.97;;;;;;;;;;5011299;28;20469;-70
2021/01/31 09:20:32;;;;;;;5.67;5.10;;;;;;;;;;5011725;28;20462;-69
2021/01/31 09:23:01;;;;;;;6.20;5.60;;;;;;;;;;5013451;28;20464;-69
2021/01/31 09:25:28;;;;;;;5.63;5.13;;;;;;;;;;5013136;28;21031;-70
2021/01/31 09:28:00;;;;;;;6.90;6.30;;;;;;;;;;5012837;28;20454;-69
2021/01/31 09:30:27;;;;;;;5.67;5.17;;;;;;;;;;5014080;28;20460;-69
2021/01/31 09:32:55;;;;;;;5.30;4.80;;;;;;;;;;5013301;28;20499;-68
2021/01/31 09:35:24;;;;;;;5.60;5.10;;;;;;;;;;5013189;28;20512;-68
2021/01/31 09:37:51;;;;;;;6.13;5.53;;;;;;;;;;5015757;28;20218;-69
2021/01/31 09:40:19;;;;;;;5.77;5.17;;;;;;;;;;5008911;28;20453;-68
2021/01/31 09:42:46;;;;;;;6.07;5.47;;;;;;;;;;5005699;28;20976;-70
2021/01/31 09:45:21;;;;;;;6.10;5.60;;;;;;;;;;5012070;28;20484;-69
2021/01/31 09:47:48;;;;;;;5.37;4.87;;;;;;;;;;5011987;28;20857;-68
2021/01/31 09:50:15;;;;;;;6.00;5.50;;;;;;;;;;5039470;23;20500;-64
2021/01/31 09:52:42;;;;;;;5.77;5.23;;;;;;;;;;5040859;28;20489;-64
2021/01/31 09:55:26;;;;;;;12.90;11.90;;;;;;;;;;5040246;28;20480;-63
2021/01/31 09:57:52;;;;;;;13.53;12.33;;;;;;;;;;5032656;28;20518;-62
2021/01/31 10:00:26;;;;;;;15.73;14.30;;;;;;;;;;5028460;28;20496;-62
2021/01/31 10:02:59;;;;;;;15.40;14.00;;;;;;;;;;5013896;28;20457;-62
2021/01/31 10:05:26;;;;;;;15.23;13.87;;;;;;;;;;5008408;28;20451;-62
2021/01/31 10:07:53;;;;;;;14.23;12.93;;;;;;;;;;5012249;28;20445;-62
2021/01/31 10:10:25;;;;;;;15.30;14.00;;;;;;;;;;5012203;28;21035;-62
2021/01/31 10:13:12;;;;;;;15.10;13.70;;;;;;;;;;5016879;28;20449;-63
2021/01/31 10:15:40;;;;;;;14.60;13.10;;;;;;;;;;5024483;28;20477;-63
2021/01/31 10:18:11;;;;;;;15.07;13.77;;;;;;;;;;5014185;28;20454;-63
2021/01/31 10:20:38;;;;;;;15.57;14.13;;;;;;;;;;5011444;28;21000;-62
2021/01/31 10:23:10;;;;;;;14.67;13.17;;;;;;;;;;5012044;28;20461;-63
2021/01/31 10:25:40;;;;;;;15.07;13.70;;;;;;;;;;5014914;28;20452;-63
2021/01/31 10:28:09;;;;;;;16.17;14.63;;;;;;;;;;5011868;28;20951;-62
2021/01/31 10:30:40;;;;;;;16.17;14.67;;;;;;;;;;5019998;28;21008;-63
2021/01/31 10:33:07;;;;;;;17.23;15.50;;;;;;;;;;5016255;28;20964;-62
2021/01/31 10:35:35;;;;;;;16.40;14.90;;;;;;;;;;5017382;28;20485;-62
2021/01/31 10:38:22;;;;;;;16.03;14.50;;;;;;;;;;5016596;28;20453;-66
2021/01/31 10:40:48;;;;;;;16.40;14.90;;;;;;;;;;5035624;28;20476;-61
2021/01/31 10:43:19;;;;;;;12.80;11.67;;;;;;;;;;5027239;28;20456;-62
2021/01/31 10:45:45;;;;;;;13.90;12.70;;;;;;;;;;5016729;28;20931;-62
2021/01/31 10:48:12;;;;;;;14.70;13.40;;;;;;;;;;5021754;28;20832;-61
2021/01/31 10:50:38;;;;;;;15.30;14.00;;;;;;;;;;5016019;28;20862;-62
2021/01/31 10:53:05;;;;;;;14.10;12.90;;;;;;;;;;5020672;28;20472;-62
2021/01/31 10:55:32;;;;;;;13.50;12.20;;;;;;;;;;5024778;28;20477;-62
2021/01/31 10:57:59;;;;;;;15.07;13.67;;;;;;;;;;5023856;28;20449;-62
2021/01/31 11:00:26;;;;;;;15.90;14.40;;;;;;;;;;5022001;28;20473;-62
2021/01/31 11:02:53;;;;;;;13.77;12.57;;;;;;;;;;5019120;28;20449;-62
2021/01/31 11:05:21;;;;;;;12.67;10.00;;;;;;;;;;5024944;28;20791;-63
2021/01/31 11:07:48;;;;;;;14.77;13.47;;;;;;;;;;5018338;28;20457;-64
2021/01/31 11:10:15;;;;;;;15.40;14.03;;;;;;;;;;5015753;28;21034;-64
2021/01/31 11:12:41;;;;;;;14.67;13.27;;;;;;;;;;5015265;28;20479;-62
2021/01/31 11:15:09;;;;;;;14.60;13.37;;;;;;;;;;5015802;28;20485;-63
2021/01/31 11:17:36;;;;;;;14.13;12.93;;;;;;;;;;5016061;28;20453;-63
2021/01/31 11:20:04;;;;;;;15.10;13.80;;;;;;;;;;5019587;28;20469;-63
2021/01/31 11:22:30;;;;;;;14.90;13.60;;;;;;;;;;5015072;28;20945;-64
2021/01/31 11:24:57;;;;;;;14.73;13.43;;;;;;;;;;5014937;28;20798;-62
2021/01/31 11:27:23;;;;;;;15.30;14.00;;;;;;;;;;5014919;28;20453;-63
2021/01/31 11:29:50;;;;;;;14.87;13.40;;;;;;;;;;5027324;28;20500;-63
2021/01/31 11:32:17;;;;;;;14.73;13.33;;;;;;;;;;5034674;28;20444;-63
2021/01/31 11:34:44;;;;;;;13.97;12.67;;;;;;;;;;5030601;28;20483;-63
2021/01/31 11:37:11;;;;;;;14.50;13.20;;;;;;;;;;5014807;28;20473;-63
2021/01/31 11:39:38;;;;;;;15.30;13.90;;;;;;;;;;5032486;28;20486;-64
2021/01/31 11:42:05;;;;;;;14.30;13.07;;;;;;;;;;5030570;28;20935;-62
2021/01/31 11:44:31;;;;;;;14.13;12.93;;;;;;;;;;5032420;28;20455;-62
2021/01/31 11:46:58;;;;;;;14.70;13.43;;;;;;;;;;5033337;28;20813;-62
2021/01/31 11:49:25;;;;;;;15.27;13.87;;;;;;;;;;5022436;28;20449;-63
2021/01/31 11:51:52;;;;;;;12.90;11.70;;;;;;;;;;5017933;28;20481;-63
2021/01/31 11:54:19;;;;;;;12.43;11.43;;;;;;;;;;5014636;28;20876;-63
2021/01/31 11:56:46;;;;;;;14.53;13.17;;;;;;;;;;5014684;28;20535;-63
2021/01/31 11:59:12;;;;;;;12.67;11.47;;;;;;;;;;5014599;28;20507;-63
2021/01/31 12:01:39;;;;;;;13.00;11.93;;;;;;;;;;5014667;28;20466;-63
2021/01/31 12:04:06;;;;;;;10.80;9.80;;;;;;;;;;5014797;28;20629;-63
2021/01/31 12:06:32;;;;;;;11.80;10.80;;;;;;;;;;5014154;28;20500;-63
2021/01/31 12:09:00;;;;;;;11.57;10.57;;;;;;;;;;5014374;28;20449;-63
2021/01/31 12:11:27;;;;;;;11.90;10.90;;;;;;;;;;5014339;28;20476;-63
2021/01/31 12:13:54;;;;;;;11.67;10.70;;;;;;;;;;5014536;28;20825;-63
2021/01/31 12:16:20;;;;;;;12.27;11.27;;;;;;;;;;5014435;28;20547;-63
2021/01/31 12:18:47;;;;;;;10.53;9.63;;;;;;;;;;5014047;28;20452;-63
2021/01/31 12:21:14;;;;;;;10.27;9.43;;;;;;;;;;5014359;28;21018;-63
2021/01/31 12:23:40;;;;;;;11.23;10.23;;;;;;;;;;5014255;28;20446;-63
2021/01/31 12:26:08;;;;;;;11.97;10.97;;;;;;;;;;5014739;28;20446;-63
2021/01/31 12:28:34;;;;;;;10.80;9.90;;;;;;;;;;5014305;28;20453;-63
2021/01/31 12:31:01;;;;;;;11.40;10.40;;;;;;;;;;5014115;28;20458;-63
2021/01/31 12:33:28;;;;;;;11.80;10.80;;;;;;;;;;5013937;28;20828;-63
2021/01/31 12:35:54;;;;;;;10.73;9.90;;;;;;;;;;5014528;28;20580;-63
2021/01/31 12:38:21;;;;;;;11.37;10.43;;;;;;;;;;5013359;28;20456;-63
2021/01/31 12:40:47;;;;;;;12.07;11.00;;;;;;;;;;5013686;28;21018;-62
2021/01/31 12:43:15;;;;;;;12.20;11.20;;;;;;;;;;5013801;28;20450;-62
2021/01/31 12:45:41;;;;;;;12.83;11.60;;;;;;;;;;5013872;28;20438;-63
2021/01/31 12:48:08;;;;;;;12.83;11.73;;;;;;;;;;5013384;28;20456;-63
2021/01/31 12:50:35;;;;;;;11.33;10.37;;;;;;;;;;5013370;28;20489;-62
2021/01/31 12:53:01;;;;;;;12.23;11.20;;;;;;;;;;5013884;28;20449;-62
2021/01/31 12:55:28;;;;;;;11.90;10.90;;;;;;;;;;5013487;28;21018;-62
2021/01/31 12:57:55;;;;;;;10.60;9.70;;;;;;;;;;5013460;28;20449;-62
2021/01/31 13:00:23;;;;;;;10.97;10.07;;;;;;;;;;5013871;28;20477;-63
2021/01/31 13:02:50;;;;;;;11.80;10.90;;;;;;;;;;5013478;28;20963;-63
2021/01/31 13:05:20;;;;;;;11.63;10.67;;;;;;;;;;5013670;28;20449;-62
2021/01/31 13:07:46;;;;;;;11.00;10.10;;;;;;;;;;5017420;28;20454;-63
2021/01/31 13:10:13;;;;;;;10.63;9.70;;;;;;;;;;5018484;28;20477;-62
2021/01/31 13:12:40;;;;;;;11.10;10.10;;;;;;;;;;5015198;28;20507;-62
2021/01/31 13:15:07;;;;;;;10.60;9.70;;;;;;;;;;5014731;28;20481;-63
2021/01/31 13:17:34;;;;;;;11.40;10.40;;;;;;;;;;5013950;28;20458;-63
2021/01/31 13:20:01;;;;;;;12.30;11.20;;;;;;;;;;5013199;28;20999;-63
2021/01/31 13:22:28;;;;;;;11.53;10.53;;;;;;;;;;5013136;28;20462;-63
2021/01/31 13:24:54;;;;;;;12.77;11.70;;;;;;;;;;5013252;28;20832;-63
2021/01/31 13:27:21;;;;;;;12.23;11.20;;;;;;;;;;5013137;28;20484;-63
2021/01/31 13:29:47;;;;;;;11.93;11.00;;;;;;;;;;5012443;28;20449;-63
2021/01/31 13:32:14;;;;;;;12.17;11.17;;;;;;;;;;5012952;28;20449;-63
2021/01/31 13:34:43;;;;;;;12.90;11.80;;;;;;;;;;5012639;28;20561;-63
2021/01/31 13:37:09;;;;;;;14.30;13.10;;;;;;;;;;5013407;28;20446;-63
2021/01/31 13:39:36;;;;;;;13.37;12.17;;;;;;;;;;5012541;28;20974;-63
2021/01/31 13:42:03;;;;;;;13.73;12.63;;;;;;;;;;5013240;28;20445;-63
2021/01/31 13:44:29;;;;;;;14.03;12.87;;;;;;;;;;5012757;28;20460;-63
2021/01/31 13:46:56;;;;;;;13.27;12.00;;;;;;;;;;5013005;28;20454;-63
2021/01/31 13:49:23;;;;;;;13.13;11.93;;;;;;;;;;5012770;28;20516;-63
2021/01/31 13:51:50;;;;;;;13.87;12.57;;;;;;;;;;5017148;28;20484;-62
2021/01/31 13:54:17;;;;;;;13.03;11.90;;;;;;;;;;5019734;28;20461;-63
2021/01/31 13:56:44;;;;;;;13.23;12.13;;;;;;;;;;5014941;28;20458;-62
2021/01/31 13:59:13;;;;;;;12.07;11.07;;;;;;;;;;5010721;28;20469;-62
2021/01/31 14:01:39;;;;;;;11.87;10.90;;;;;;;;;;5013646;28;20480;-62
2021/01/31 14:04:06;;;;;;;12.50;11.50;;;;;;;;;;5018335;28;20821;-62
2021/01/31 14:06:33;;;;;;;12.93;11.83;;;;;;;;;;5032721;28;20453;-63
2021/01/31 14:09:01;;;;;;;13.90;12.70;;;;;;;;;;5029689;28;20458;-62
2021/01/31 14:11:27;;;;;;;14.50;13.30;;;;;;;;;;5012509;28;20523;-62
2021/01/31 14:13:54;;;;;;;13.77;12.50;;;;;;;;;;5015574;28;20449;-62
2021/01/31 14:16:21;;;;;;;14.20;13.00;;;;;;;;;;5032152;28;20488;-62
2021/01/31 14:18:47;;;;;;;13.83;12.63;;;;;;;;;;5025829;28;20464;-62
2021/01/31 14:21:14;;;;;;;12.83;11.73;;;;;;;;;;5012337;28;20469;-61
2021/01/31 14:23:42;;;;;;;12.37;11.27;;;;;;;;;;5004243;28;20468;-62
2021/01/31 14:26:10;;;;;;;11.63;10.63;;;;;;;;;;5009602;28;20869;-62
2021/01/31 14:28:37;;;;;;;13.43;12.33;;;;;;;;;;5012637;28;20472;-62
2021/01/31 14:31:04;;;;;;;13.10;12.00;;;;;;;;;;5021419;28;20820;-62